sensor_id;sensor_type;location;lat;lon;timestamp;pressure;altitude;pressure_sealevel;temperature;humidity
12207;BME280;6166;42.806;23.408;2022-07-17T00:00:30;72093.56;;;-144.35;63.08
12207;BME280;6166;42.806;23.408;2022-07-17T00:02:56;72095.63;;;-144.35;63.29
12207;BME280;6166;42.806;23.408;2022-07-17T00:05:23;72103.91;;;-144.35;63.11
12207;BME280;6166;42.806;23.408;2022-07-17T00:07:50;72099.78;;;-144.35;63.09
12207;BME280;6166;42.806;23.408;2022-07-17T00:10:17;72108.03;;;-144.35;63.38
12207;BME280;6166;42.806;23.408;2022-07-17T00:12:44;72110.09;;;-144.35;63.30
12207;BME280;6166;42.806;23.408;2022-07-17T00:15:11;72130.75;;;-144.35;63.40
12207;BME280;6166;42.806;23.408;2022-07-17T00:17:39;72130.75;;;-144.35;63.52
12207;BME280;6166;42.806;23.408;2022-07-17T00:20:07;72141.06;;;-144.35;63.74
12207;BME280;6166;42.806;23.408;2022-07-17T00:22:34;72139.00;;;-144.35;63.41
12207;BME280;6166;42.806;23.408;2022-07-17T00:25:01;72128.69;;;-144.35;63.47
12207;BME280;6166;42.806;23.408;2022-07-17T00:27:29;72126.63;;;-144.35;63.55
12207;BME280;6166;42.806;23.408;2022-07-17T00:29:56;72172.03;;;-144.35;64.41
12207;BME280;6166;42.806;23.408;2022-07-17T00:32:22;72192.69;;;-144.35;64.94
12207;BME280;6166;42.806;23.408;2022-07-17T00:34:51;72200.94;;;-144.35;65.11
12207;BME280;6166;42.806;23.408;2022-07-17T00:37:18;72205.09;;;-144.35;65.66
12207;BME280;6166;42.806;23.408;2022-07-17T00:39:44;72190.63;;;-144.35;65.17
12207;BME280;6166;42.806;23.408;2022-07-17T00:42:11;72188.56;;;-144.35;65.03
12207;BME280;6166;42.806;23.408;2022-07-17T00:44:39;72196.81;;;-144.35;65.94
12207;BME280;6166;42.806;23.408;2022-07-17T00:47:11;72200.94;;;-144.35;66.17
12207;BME280;6166;42.806;23.408;2022-07-17T00:49:38;72192.69;;;-144.35;66.18
12207;BME280;6166;42.806;23.408;2022-07-17T00:52:06;72194.75;;;-144.35;66.11
12207;BME280;6166;42.806;23.408;2022-07-17T00:54:35;72198.88;;;-144.35;66.09
12207;BME280;6166;42.806;23.408;2022-07-17T00:57:04;72200.94;;;-144.35;66.16
12207;BME280;6166;42.806;23.408;2022-07-17T00:59:32;72219.53;;;-144.35;66.27
12207;BME280;6166;42.806;23.408;2022-07-17T01:01:59;72223.66;;;-144.35;66.29
12207;BME280;6166;42.806;23.408;2022-07-17T01:04:26;72227.81;;;-144.35;66.38
12207;BME280;6166;42.806;23.408;2022-07-17T01:06:53;72244.31;;;-144.35;66.73
12207;BME280;6166;42.806;23.408;2022-07-17T01:09:21;72246.38;;;-144.35;66.82
12207;BME280;6166;42.806;23.408;2022-07-17T01:11:49;72246.38;;;-144.35;66.98
12207;BME280;6166;42.806;23.408;2022-07-17T01:14:16;72254.66;;;-144.35;66.58
12207;BME280;6166;42.806;23.408;2022-07-17T01:16:44;72260.84;;;-144.35;67.08
12207;BME280;6166;42.806;23.408;2022-07-17T01:19:11;72264.97;;;-144.35;67.34
12207;BME280;6166;42.806;23.408;2022-07-17T01:21:40;72258.78;;;-144.35;67.41
12207;BME280;6166;42.806;23.408;2022-07-17T01:24:07;72254.66;;;-144.35;67.46
12207;BME280;6166;42.806;23.408;2022-07-17T01:26:34;72250.50;;;-144.35;67.02
12207;BME280;6166;42.806;23.408;2022-07-17T01:29:01;72246.38;;;-144.35;66.84
12207;BME280;6166;42.806;23.408;2022-07-17T01:31:28;72248.44;;;-144.35;66.93
12207;BME280;6166;42.806;23.408;2022-07-17T01:33:56;72250.50;;;-144.35;66.88
12207;BME280;6166;42.806;23.408;2022-07-17T01:36:23;72246.38;;;-144.35;66.53
12207;BME280;6166;42.806;23.408;2022-07-17T01:38:51;72242.25;;;-144.35;66.70
12207;BME280;6166;42.806;23.408;2022-07-17T01:41:20;72246.38;;;-144.35;66.15
12207;BME280;6166;42.806;23.408;2022-07-17T01:43:47;72246.38;;;-144.35;66.18
12207;BME280;6166;42.806;23.408;2022-07-17T01:46:13;72248.44;;;-144.35;65.29
12207;BME280;6166;42.806;23.408;2022-07-17T01:48:40;72254.66;;;-144.35;65.01
12207;BME280;6166;42.806;23.408;2022-07-17T01:51:07;72250.50;;;-144.35;64.93
12207;BME280;6166;42.806;23.408;2022-07-17T01:53:34;72254.66;;;-144.35;64.94
12207;BME280;6166;42.806;23.408;2022-07-17T01:56:02;72258.78;;;-144.35;65.07
12207;BME280;6166;42.806;23.408;2022-07-17T01:58:29;72256.72;;;-144.35;65.08
12207;BME280;6166;42.806;23.408;2022-07-17T02:00:56;72254.66;;;-144.35;64.94
12207;BME280;6166;42.806;23.408;2022-07-17T02:03:23;72275.28;;;-144.35;64.84
12207;BME280;6166;42.806;23.408;2022-07-17T02:05:50;72283.56;;;-144.35;65.42
12207;BME280;6166;42.806;23.408;2022-07-17T02:08:16;72291.81;;;-144.35;65.38
12207;BME280;6166;42.806;23.408;2022-07-17T02:10:43;72293.88;;;-144.35;65.33
12207;BME280;6166;42.806;23.408;2022-07-17T02:13:11;72295.94;;;-144.35;65.10
12207;BME280;6166;42.806;23.408;2022-07-17T02:15:38;72300.06;;;-144.35;65.00
12207;BME280;6166;42.806;23.408;2022-07-17T02:18:05;72308.34;;;-144.35;64.89
12207;BME280;6166;42.806;23.408;2022-07-17T02:20:32;72337.25;;;-144.35;66.06
12207;BME280;6166;42.806;23.408;2022-07-17T02:23:10;72337.25;;;-144.35;66.05
12207;BME280;6166;42.806;23.408;2022-07-17T02:25:36;72345.50;;;-144.35;65.47
12207;BME280;6166;42.806;23.408;2022-07-17T02:28:03;72337.25;;;-144.35;65.24
12207;BME280;6166;42.806;23.408;2022-07-17T02:30:31;72343.44;;;-144.35;64.37
12207;BME280;6166;42.806;23.408;2022-07-17T02:32:58;72347.56;;;-144.35;65.16
12207;BME280;6166;42.806;23.408;2022-07-17T02:35:25;72345.50;;;-144.35;65.43
12207;BME280;6166;42.806;23.408;2022-07-17T02:37:52;72353.78;;;-144.35;65.89
12207;BME280;6166;42.806;23.408;2022-07-17T02:40:18;72357.91;;;-144.35;65.97
12207;BME280;6166;42.806;23.408;2022-07-17T02:42:45;72370.28;;;-144.35;66.35
12207;BME280;6166;42.806;23.408;2022-07-17T02:45:12;72382.69;;;-144.35;66.46
12207;BME280;6166;42.806;23.408;2022-07-17T02:47:41;72382.69;;;-144.35;66.20
12207;BME280;6166;42.806;23.408;2022-07-17T02:50:09;72403.31;;;-144.35;66.56
12207;BME280;6166;42.806;23.408;2022-07-17T02:52:36;72405.41;;;-144.35;66.30
12207;BME280;6166;42.806;23.408;2022-07-17T02:55:04;72423.97;;;-144.35;65.00
12207;BME280;6166;42.806;23.408;2022-07-17T02:57:31;72419.84;;;-144.35;65.66
12207;BME280;6166;42.806;23.408;2022-07-17T02:59:58;72409.53;;;-144.35;65.27
12207;BME280;6166;42.806;23.408;2022-07-17T03:02:25;72423.97;;;-144.35;65.43
12207;BME280;6166;42.806;23.408;2022-07-17T03:04:53;72415.72;;;-144.35;65.18
12207;BME280;6166;42.806;23.408;2022-07-17T03:07:20;72411.59;;;-144.35;64.79
12207;BME280;6166;42.806;23.408;2022-07-17T03:09:46;72421.91;;;-144.35;64.57
12207;BME280;6166;42.806;23.408;2022-07-17T03:12:13;72411.59;;;-144.35;64.49
12207;BME280;6166;42.806;23.408;2022-07-17T03:14:40;72423.97;;;-144.35;65.09
12207;BME280;6166;42.806;23.408;2022-07-17T03:17:07;72430.19;;;-144.35;65.19
12207;BME280;6166;42.806;23.408;2022-07-17T03:19:33;72432.25;;;-144.35;65.59
12207;BME280;6166;42.806;23.408;2022-07-17T03:22:01;72444.63;;;-144.35;65.32
12207;BME280;6166;42.806;23.408;2022-07-17T03:24:28;72448.75;;;-144.35;65.43
12207;BME280;6166;42.806;23.408;2022-07-17T03:26:55;72463.22;;;-144.35;65.41
12207;BME280;6166;42.806;23.408;2022-07-17T03:29:22;72471.47;;;-144.35;65.33
12207;BME280;6166;42.806;23.408;2022-07-17T03:31:49;72485.94;;;-144.35;65.65
12207;BME280;6166;42.806;23.408;2022-07-17T03:34:15;72481.81;;;-144.35;66.16
12207;BME280;6166;42.806;23.408;2022-07-17T03:36:42;72490.06;;;-144.35;66.08
12207;BME280;6166;42.806;23.408;2022-07-17T03:39:10;72502.44;;;-144.35;65.63
12207;BME280;6166;42.806;23.408;2022-07-17T03:41:37;72514.84;;;-144.35;65.63
12207;BME280;6166;42.806;23.408;2022-07-17T03:44:04;72500.38;;;-144.35;67.11
12207;BME280;6166;42.806;23.408;2022-07-17T03:46:30;72492.13;;;-144.35;67.35
12207;BME280;6166;42.806;23.408;2022-07-17T03:48:57;72473.53;;;-144.35;66.76
12207;BME280;6166;42.806;23.408;2022-07-17T03:51:24;72469.41;;;-144.35;65.90
12207;BME280;6166;42.806;23.408;2022-07-17T03:53:51;72452.88;;;-144.35;66.12
12207;BME280;6166;42.806;23.408;2022-07-17T03:56:20;72444.63;;;-144.35;65.72
12207;BME280;6166;42.806;23.408;2022-07-17T03:58:47;72434.31;;;-144.35;64.39
12207;BME280;6166;42.806;23.408;2022-07-17T04:01:13;72436.38;;;-144.35;63.67
12207;BME280;6166;42.806;23.408;2022-07-17T04:03:40;72444.63;;;-144.35;63.56
12207;BME280;6166;42.806;23.408;2022-07-17T04:06:07;72415.72;;;-144.35;64.61
12207;BME280;6166;42.806;23.408;2022-07-17T04:08:34;72407.47;;;-144.35;64.03
12207;BME280;6166;42.806;23.408;2022-07-17T04:11:00;72395.06;;;-144.35;63.23
12207;BME280;6166;42.806;23.408;2022-07-17T04:13:29;72382.69;;;-144.35;63.40
12207;BME280;6166;42.806;23.408;2022-07-17T04:15:55;72374.41;;;-144.35;62.69
12207;BME280;6166;42.806;23.408;2022-07-17T04:18:24;72364.09;;;-144.35;62.66
12207;BME280;6166;42.806;23.408;2022-07-17T04:20:52;72349.63;;;-144.35;62.87
12207;BME280;6166;42.806;23.408;2022-07-17T04:23:19;72343.44;;;-144.35;62.45
12207;BME280;6166;42.806;23.408;2022-07-17T04:25:46;72351.69;;;-144.35;61.77
12207;BME280;6166;42.806;23.408;2022-07-17T04:28:13;72331.06;;;-144.35;62.83
12207;BME280;6166;42.806;23.408;2022-07-17T04:30:42;72316.59;;;-144.35;62.01
12207;BME280;6166;42.806;23.408;2022-07-17T04:33:09;72337.25;;;-144.35;61.63
12207;BME280;6166;42.806;23.408;2022-07-17T04:35:36;72324.84;;;-144.35;62.11
12207;BME280;6166;42.806;23.408;2022-07-17T04:38:03;72328.97;;;-144.35;60.90
12207;BME280;6166;42.806;23.408;2022-07-17T04:40:30;72337.25;;;-144.35;61.46
12207;BME280;6166;42.806;23.408;2022-07-17T04:42:57;72304.19;;;-144.35;61.95
12207;BME280;6166;42.806;23.408;2022-07-17T04:45:25;72316.59;;;-144.35;60.56
12207;BME280;6166;42.806;23.408;2022-07-17T04:47:53;72322.78;;;-144.35;60.75
12207;BME280;6166;42.806;23.408;2022-07-17T04:50:20;72341.38;;;-144.35;61.84
12207;BME280;6166;42.806;23.408;2022-07-17T04:52:47;72339.31;;;-144.35;61.71
12207;BME280;6166;42.806;23.408;2022-07-17T04:55:14;72314.53;;;-144.35;61.52
12207;BME280;6166;42.806;23.408;2022-07-17T04:57:41;72304.19;;;-144.35;60.23
12207;BME280;6166;42.806;23.408;2022-07-17T05:00:09;72300.06;;;-144.35;60.40
12207;BME280;6166;42.806;23.408;2022-07-17T05:02:37;72295.94;;;-144.35;61.10
12207;BME280;6166;42.806;23.408;2022-07-17T05:05:06;72281.50;;;-144.35;59.29
12207;BME280;6166;42.806;23.408;2022-07-17T05:07:32;72275.28;;;-144.35;60.53
12207;BME280;6166;42.806;23.408;2022-07-17T05:09:59;72264.97;;;-144.35;59.22
12207;BME280;6166;42.806;23.408;2022-07-17T05:12:26;72236.06;;;-144.35;58.43
12207;BME280;6166;42.806;23.408;2022-07-17T05:14:53;72225.72;;;-144.35;57.65
12207;BME280;6166;42.806;23.408;2022-07-17T05:17:19;72209.22;;;-144.35;58.15
12207;BME280;6166;42.806;23.408;2022-07-17T05:19:46;72192.69;;;-144.35;58.26
12207;BME280;6166;42.806;23.408;2022-07-17T05:22:14;72184.44;;;-144.35;58.51
12207;BME280;6166;42.806;23.408;2022-07-17T05:24:41;72172.03;;;-144.35;58.23
12207;BME280;6166;42.806;23.408;2022-07-17T05:27:08;72159.66;;;-144.35;58.60
12207;BME280;6166;42.806;23.408;2022-07-17T05:29:34;72134.88;;;-144.35;57.83
12207;BME280;6166;42.806;23.408;2022-07-17T05:32:01;72118.34;;;-144.35;55.88
12207;BME280;6166;42.806;23.408;2022-07-17T05:34:28;72130.75;;;-144.35;55.75
12207;BME280;6166;42.806;23.408;2022-07-17T05:36:55;72118.34;;;-144.35;56.69
12207;BME280;6166;42.806;23.408;2022-07-17T05:39:23;72116.28;;;-144.35;56.28
12207;BME280;6166;42.806;23.408;2022-07-17T05:41:50;72110.09;;;-144.35;57.38
12207;BME280;6166;42.806;23.408;2022-07-17T05:44:16;72110.09;;;-144.35;57.00
12207;BME280;6166;42.806;23.408;2022-07-17T05:46:43;72110.09;;;-144.35;57.88
12207;BME280;6166;42.806;23.408;2022-07-17T05:49:10;72118.34;;;-144.35;58.02
12207;BME280;6166;42.806;23.408;2022-07-17T05:51:36;72110.09;;;-144.35;57.44
12207;BME280;6166;42.806;23.408;2022-07-17T05:54:03;72089.44;;;-144.35;58.17
12207;BME280;6166;42.806;23.408;2022-07-17T05:56:31;72087.38;;;-144.35;55.39
12207;BME280;6166;42.806;23.408;2022-07-17T05:58:58;72056.41;;;-144.35;55.85
12207;BME280;6166;42.806;23.408;2022-07-17T06:01:25;72058.47;;;-144.35;54.78
12207;BME280;6166;42.806;23.408;2022-07-17T06:03:52;72056.41;;;-144.35;55.06
12207;BME280;6166;42.806;23.408;2022-07-17T06:06:18;72044.03;;;-144.35;54.58
12207;BME280;6166;42.806;23.408;2022-07-17T06:08:46;72027.50;;;-144.35;54.10
12207;BME280;6166;42.806;23.408;2022-07-17T06:11:13;72023.38;;;-144.35;53.48
12207;BME280;6166;42.806;23.408;2022-07-17T06:13:41;71994.47;;;-144.35;51.32
12207;BME280;6166;42.806;23.408;2022-07-17T06:16:08;71984.13;;;-144.35;49.78
12207;BME280;6166;42.806;23.408;2022-07-17T06:18:35;71969.69;;;-144.35;49.95
12207;BME280;6166;42.806;23.408;2022-07-17T06:21:01;71936.66;;;-144.35;50.00
12207;BME280;6166;42.806;23.408;2022-07-17T06:23:33;71916.00;;;-144.35;49.70
12207;BME280;6166;42.806;23.408;2022-07-17T06:25:59;71889.16;;;-144.35;49.45
12207;BME280;6166;42.806;23.408;2022-07-17T06:28:26;71903.59;;;-144.35;48.14
12207;BME280;6166;42.806;23.408;2022-07-17T06:30:54;71920.13;;;-144.35;46.73
12207;BME280;6166;42.806;23.408;2022-07-17T06:33:21;71918.06;;;-144.35;47.41
12207;BME280;6166;42.806;23.408;2022-07-17T06:35:48;71899.47;;;-144.35;46.77
12207;BME280;6166;42.806;23.408;2022-07-17T06:38:14;71874.69;;;-144.35;46.41
12207;BME280;6166;42.806;23.408;2022-07-17T06:40:41;71837.53;;;-144.35;46.19
12207;BME280;6166;42.806;23.408;2022-07-17T06:43:08;71849.94;;;-144.35;45.45
12207;BME280;6166;42.806;23.408;2022-07-17T06:45:36;71837.53;;;-144.35;43.59
12207;BME280;6166;42.806;23.408;2022-07-17T06:48:05;71794.19;;;-144.35;38.97
12207;BME280;6166;42.806;23.408;2022-07-17T06:50:31;71759.06;;;-144.35;41.71
12207;BME280;6166;42.806;23.408;2022-07-17T06:52:58;71721.91;;;-144.35;39.12
12207;BME280;6166;42.806;23.408;2022-07-17T06:55:25;71676.50;;;-144.35;39.75
12207;BME280;6166;42.806;23.408;2022-07-17T06:57:51;71713.66;;;-144.35;37.10
12207;BME280;6166;42.806;23.408;2022-07-17T07:00:18;71738.44;;;-144.35;38.43
12207;BME280;6166;42.806;23.408;2022-07-17T07:02:45;71682.69;;;-144.35;39.94
12207;BME280;6166;42.806;23.408;2022-07-17T07:05:14;71635.19;;;-144.35;37.79
12207;BME280;6166;42.806;23.408;2022-07-17T07:07:41;71693.00;;;-144.35;37.79
12207;BME280;6166;42.806;23.408;2022-07-17T07:10:08;71705.41;;;-144.35;35.91
12207;BME280;6166;42.806;23.408;2022-07-17T07:12:35;71715.72;;;-144.35;36.55
12207;BME280;6166;42.806;23.408;2022-07-17T07:15:06;71721.91;;;-144.35;36.45
12207;BME280;6166;42.806;23.408;2022-07-17T07:17:34;71738.44;;;-144.35;36.06
12207;BME280;6166;42.806;23.408;2022-07-17T07:20:01;71730.16;;;-144.35;37.56
12207;BME280;6166;42.806;23.408;2022-07-17T07:22:30;71688.88;;;-144.35;36.78
12207;BME280;6166;42.806;23.408;2022-07-17T07:24:57;71676.50;;;-144.35;36.16
12207;BME280;6166;42.806;23.408;2022-07-17T07:27:24;71705.41;;;-144.35;35.14
12207;BME280;6166;42.806;23.408;2022-07-17T07:29:50;71678.56;;;-144.35;36.61
12207;BME280;6166;42.806;23.408;2022-07-17T07:32:17;71639.31;;;-144.35;35.21
12207;BME280;6166;42.806;23.408;2022-07-17T07:34:44;71622.81;;;-144.35;36.10
12207;BME280;6166;42.806;23.408;2022-07-17T07:37:11;71659.97;;;-144.35;34.58
12207;BME280;6166;42.806;23.408;2022-07-17T07:39:39;71647.59;;;-144.35;34.94
12207;BME280;6166;42.806;23.408;2022-07-17T07:42:06;71649.66;;;-144.35;35.85
12207;BME280;6166;42.806;23.408;2022-07-17T07:44:32;71593.91;;;-144.35;34.66
12207;BME280;6166;42.806;23.408;2022-07-17T07:47:01;71610.41;;;-144.35;33.88
12207;BME280;6166;42.806;23.408;2022-07-17T07:49:28;71598.03;;;-144.35;33.81
12207;BME280;6166;42.806;23.408;2022-07-17T07:51:55;71595.97;;;-144.35;34.10
12207;BME280;6166;42.806;23.408;2022-07-17T07:54:21;71635.19;;;-144.35;33.19
12207;BME280;6166;42.806;23.408;2022-07-17T07:56:49;71602.16;;;-144.35;33.77
12207;BME280;6166;42.806;23.408;2022-07-17T07:59:16;71614.56;;;-144.35;32.87
12207;BME280;6166;42.806;23.408;2022-07-17T08:01:43;71567.06;;;-144.35;32.48
12207;BME280;6166;42.806;23.408;2022-07-17T08:04:10;71548.47;;;-144.35;32.57
12207;BME280;6166;42.806;23.408;2022-07-17T08:06:36;71523.72;;;-144.35;32.84
12207;BME280;6166;42.806;23.408;2022-07-17T08:09:03;71565.00;;;-144.35;32.38
12207;BME280;6166;42.806;23.408;2022-07-17T08:11:30;71608.34;;;-144.35;32.56
12207;BME280;6166;42.806;23.408;2022-07-17T08:13:58;71552.59;;;-144.35;33.35
12207;BME280;6166;42.806;23.408;2022-07-17T08:16:25;71490.69;;;-144.35;33.12
12207;BME280;6166;42.806;23.408;2022-07-17T08:18:52;71490.69;;;-144.35;33.77
12207;BME280;6166;42.806;23.408;2022-07-17T08:21:19;71496.88;;;-144.35;33.02
12207;BME280;6166;42.806;23.408;2022-07-17T08:23:45;71540.22;;;-144.35;32.49
12207;BME280;6166;42.806;23.408;2022-07-17T08:26:12;71490.69;;;-144.35;33.66
12207;BME280;6166;42.806;23.408;2022-07-17T08:28:39;71432.88;;;-144.35;32.64
12207;BME280;6166;42.806;23.408;2022-07-17T08:31:07;71441.13;;;-144.35;33.45
12207;BME280;6166;42.806;23.408;2022-07-17T08:33:35;71453.50;;;-144.35;32.14
12207;BME280;6166;42.806;23.408;2022-07-17T08:36:02;71416.34;;;-144.35;33.47
12207;BME280;6166;42.806;23.408;2022-07-17T08:38:28;71437.00;;;-144.35;31.62
12207;BME280;6166;42.806;23.408;2022-07-17T08:40:55;71470.03;;;-144.35;32.00
12207;BME280;6166;42.806;23.408;2022-07-17T08:43:24;71441.13;;;-144.35;33.28
12207;BME280;6166;42.806;23.408;2022-07-17T08:45:51;71362.66;;;-144.35;32.65
12207;BME280;6166;42.806;23.408;2022-07-17T08:48:19;71321.38;;;-144.35;31.50
12207;BME280;6166;42.806;23.408;2022-07-17T08:50:46;71319.31;;;-144.35;31.36
12207;BME280;6166;42.806;23.408;2022-07-17T08:53:13;71403.97;;;-144.35;31.34
12207;BME280;6166;42.806;23.408;2022-07-17T08:55:40;71410.16;;;-144.35;31.63
12207;BME280;6166;42.806;23.408;2022-07-17T08:58:07;71455.56;;;-144.35;31.90
12207;BME280;6166;42.806;23.408;2022-07-17T09:00:34;71457.63;;;-144.35;31.59
12207;BME280;6166;42.806;23.408;2022-07-17T09:03:02;71387.44;;;-144.35;33.42
12207;BME280;6166;42.806;23.408;2022-07-17T09:05:32;71379.19;;;-144.35;31.51
12207;BME280;6166;42.806;23.408;2022-07-17T09:08:00;71445.25;;;-144.35;30.96
12207;BME280;6166;42.806;23.408;2022-07-17T09:10:36;71387.44;;;-144.35;33.37
12207;BME280;6166;42.806;23.408;2022-07-17T09:13:13;71339.97;;;-144.35;31.88
12207;BME280;6166;42.806;23.408;2022-07-17T09:15:40;71275.97;;;-144.35;31.67
12207;BME280;6166;42.806;23.408;2022-07-17T09:18:07;71271.84;;;-144.35;30.49
12207;BME280;6166;42.806;23.408;2022-07-17T09:20:43;71304.88;;;-144.35;31.06
12207;BME280;6166;42.806;23.408;2022-07-17T09:23:11;71333.78;;;-144.35;29.87
12207;BME280;6166;42.806;23.408;2022-07-17T09:25:39;71263.59;;;-144.35;31.94
12207;BME280;6166;42.806;23.408;2022-07-17T09:28:07;71203.72;;;-144.35;30.26
12207;BME280;6166;42.806;23.408;2022-07-17T09:30:36;71350.28;;;-144.35;30.31
12207;BME280;6166;42.806;23.408;2022-07-17T09:33:06;71387.44;;;-144.35;30.63
12207;BME280;6166;42.806;23.408;2022-07-17T09:35:33;71333.78;;;-144.35;31.51
12207;BME280;6166;42.806;23.408;2022-07-17T09:38:01;71278.03;;;-144.35;31.95
12207;BME280;6166;42.806;23.408;2022-07-17T09:40:28;71211.97;;;-144.35;31.33
12207;BME280;6166;42.806;23.408;2022-07-17T09:43:12;71292.47;;;-144.35;31.49
12207;BME280;6166;42.806;23.408;2022-07-17T09:45:39;71214.03;;;-144.35;29.84
12207;BME280;6166;42.806;23.408;2022-07-17T09:48:08;71172.75;;;-144.35;29.96
12207;BME280;6166;42.806;23.408;2022-07-17T09:50:37;71214.03;;;-144.35;30.72
12207;BME280;6166;42.806;23.408;2022-07-17T09:53:07;71251.19;;;-144.35;29.37
12207;BME280;6166;42.806;23.408;2022-07-17T09:55:35;71251.19;;;-144.35;29.92
12207;BME280;6166;42.806;23.408;2022-07-17T09:58:11;71201.66;;;-144.35;30.46
12207;BME280;6166;42.806;23.408;2022-07-17T10:00:39;71127.34;;;-144.35;30.44
12207;BME280;6166;42.806;23.408;2022-07-17T10:03:06;71102.56;;;-144.35;30.37
12207;BME280;6166;42.806;23.408;2022-07-17T10:05:33;71098.44;;;-144.35;29.57
12207;BME280;6166;42.806;23.408;2022-07-17T10:08:00;71123.19;;;-144.35;28.82
12207;BME280;6166;42.806;23.408;2022-07-17T10:10:29;71224.34;;;-144.35;29.75
12207;BME280;6166;42.806;23.408;2022-07-17T10:13:13;71247.06;;;-144.35;30.56
12207;BME280;6166;42.806;23.408;2022-07-17T10:15:41;71238.81;;;-144.35;29.25
12207;BME280;6166;42.806;23.408;2022-07-17T10:18:08;71209.91;;;-144.35;28.97
12207;BME280;6166;42.806;23.408;2022-07-17T10:20:35;71201.66;;;-144.35;28.92
12207;BME280;6166;42.806;23.408;2022-07-17T10:23:11;71315.19;;;-144.35;29.13
12207;BME280;6166;42.806;23.408;2022-07-17T10:25:39;71358.53;;;-144.35;29.47
12207;BME280;6166;42.806;23.408;2022-07-17T10:31:23;71325.50;;;-144.35;31.33
12207;BME280;6166;42.806;23.408;2022-07-17T10:33:58;71275.97;;;-144.35;31.00
12207;BME280;6166;42.806;23.408;2022-07-17T10:36:35;71185.13;;;-144.35;30.39
12207;BME280;6166;42.806;23.408;2022-07-17T10:39:12;71110.81;;;-144.35;28.54
12207;BME280;6166;42.806;23.408;2022-07-17T10:41:42;71255.31;;;-144.35;29.13
12207;BME280;6166;42.806;23.408;2022-07-17T10:44:09;71251.19;;;-144.35;31.13
12207;BME280;6166;42.806;23.408;2022-07-17T10:46:35;71271.84;;;-144.35;29.40
12207;BME280;6166;42.806;23.408;2022-07-17T10:49:03;71238.81;;;-144.35;29.37
12207;BME280;6166;42.806;23.408;2022-07-17T10:51:30;71189.25;;;-144.35;31.45
12207;BME280;6166;42.806;23.408;2022-07-17T10:54:10;71131.47;;;-144.35;29.61
12207;BME280;6166;42.806;23.408;2022-07-17T10:56:38;71112.88;;;-144.35;29.31
12207;BME280;6166;42.806;23.408;2022-07-17T10:59:07;71102.56;;;-144.35;29.30
12207;BME280;6166;42.806;23.408;2022-07-17T11:01:33;71102.56;;;-144.35;29.30
12207;BME280;6166;42.806;23.408;2022-07-17T11:04:01;71059.22;;;-144.35;29.35
12207;BME280;6166;42.806;23.408;2022-07-17T11:06:31;71015.84;;;-144.35;28.83
12207;BME280;6166;42.806;23.408;2022-07-17T11:08:59;70995.22;;;-144.35;29.35
12207;BME280;6166;42.806;23.408;2022-07-17T11:11:36;70974.56;;;-144.35;29.47
12207;BME280;6166;42.806;23.408;2022-07-17T11:14:12;70993.16;;;-144.35;28.96
12207;BME280;6166;42.806;23.408;2022-07-17T11:16:45;70972.50;;;-144.35;28.90
12207;BME280;6166;42.806;23.408;2022-07-17T11:19:12;70949.81;;;-144.35;28.93
12207;BME280;6166;42.806;23.408;2022-07-17T11:21:46;70916.78;;;-144.35;29.48
12207;BME280;6166;42.806;23.408;2022-07-17T11:24:13;70865.16;;;-144.35;27.76
12207;BME280;6166;42.806;23.408;2022-07-17T11:26:41;70850.72;;;-144.35;28.52
12207;BME280;6166;42.806;23.408;2022-07-17T11:29:07;70902.31;;;-144.35;28.16
12207;BME280;6166;42.806;23.408;2022-07-17T11:31:36;71040.63;;;-144.35;29.07
12207;BME280;6166;42.806;23.408;2022-07-17T11:34:04;71088.09;;;-144.35;28.72
12207;BME280;6166;42.806;23.408;2022-07-17T11:36:33;71137.66;;;-144.35;29.99
12207;BME280;6166;42.806;23.408;2022-07-17T11:39:02;71150.03;;;-144.35;29.74
12207;BME280;6166;42.806;23.408;2022-07-17T11:41:34;71106.69;;;-144.35;29.90
12207;BME280;6166;42.806;23.408;2022-07-17T11:44:01;71086.03;;;-144.35;29.61
12207;BME280;6166;42.806;23.408;2022-07-17T11:46:29;71069.53;;;-144.35;29.10
12207;BME280;6166;42.806;23.408;2022-07-17T11:48:57;71028.25;;;-144.35;28.64
12207;BME280;6166;42.806;23.408;2022-07-17T11:51:36;71094.31;;;-144.35;29.27
12207;BME280;6166;42.806;23.408;2022-07-17T11:54:04;71044.75;;;-144.35;30.66
12207;BME280;6166;42.806;23.408;2022-07-17T11:56:37;71013.78;;;-144.35;28.82
12207;BME280;6166;42.806;23.408;2022-07-17T11:59:04;70999.34;;;-144.35;30.34
12207;BME280;6166;42.806;23.408;2022-07-17T12:01:38;71081.91;;;-144.35;29.60
12207;BME280;6166;42.806;23.408;2022-07-17T12:04:07;71222.28;;;-144.35;30.56
12207;BME280;6166;42.806;23.408;2022-07-17T12:06:35;71150.03;;;-144.35;30.12
12207;BME280;6166;42.806;23.408;2022-07-17T12:09:02;71147.97;;;-144.35;30.32
12207;BME280;6166;42.806;23.408;2022-07-17T12:11:29;71114.94;;;-144.35;29.70
12207;BME280;6166;42.806;23.408;2022-07-17T12:14:03;71096.38;;;-144.35;29.83
12207;BME280;6166;42.806;23.408;2022-07-17T12:16:43;71110.81;;;-144.35;31.04
12207;BME280;6166;42.806;23.408;2022-07-17T12:19:13;71119.06;;;-144.35;31.08
12207;BME280;6166;42.806;23.408;2022-07-17T12:21:55;71123.19;;;-144.35;31.05
12207;BME280;6166;42.806;23.408;2022-07-17T12:24:26;71143.84;;;-144.35;31.49
12207;BME280;6166;42.806;23.408;2022-07-17T12:26:54;71127.34;;;-144.35;30.73
12207;BME280;6166;42.806;23.408;2022-07-17T12:29:21;71209.91;;;-144.35;31.78
12207;BME280;6166;42.806;23.408;2022-07-17T12:31:48;71185.13;;;-144.35;31.85
12207;BME280;6166;42.806;23.408;2022-07-17T12:34:16;71214.03;;;-144.35;31.21
12207;BME280;6166;42.806;23.408;2022-07-17T12:36:43;71218.16;;;-144.35;32.85
12207;BME280;6166;42.806;23.408;2022-07-17T12:39:09;71168.63;;;-144.35;32.45
12207;BME280;6166;42.806;23.408;2022-07-17T12:41:37;71139.72;;;-144.35;31.88
12207;BME280;6166;42.806;23.408;2022-07-17T12:44:03;71181.00;;;-144.35;32.54
12207;BME280;6166;42.806;23.408;2022-07-17T12:46:30;71160.34;;;-144.35;31.94